Time;durP1;ratioP1;P1;durP2;ratioP2;P2;SDS_P1;SDS_P2;PMS_P1;PMS_P2;Temp;Humidity;BMP_temperature;BMP_pressure;BME280_temperature;BME280_humidity;BME280_pressure;Samples;Min_cycle;Max_cycle;Signal;HPM_P1;HPM_P2
2023/09/24 00:00:26;;;;;;;5.07;3.25;;;;;8.80;96938.00;;;;8343045;28;21998;-65
2023/09/24 00:04:31;;;;;;;5.57;3.00;;;;;8.70;96939.00;;;;8352550;28;20256;-65
2023/09/24 00:08:34;;;;;;;8.23;3.35;;;;;8.60;96932.00;;;;8350318;28;20297;-65
2023/09/24 00:12:40;;;;;;;4.32;3.00;;;;;8.50;96940.00;;;;8347853;28;20201;-64
2023/09/24 00:16:43;;;;;;;4.72;3.33;;;;;8.50;96941.00;;;;8349351;28;20287;-65
2023/09/24 00:20:47;;;;;;;5.43;3.00;;;;;8.50;96945.00;;;;8350312;28;20235;-65
2023/09/24 00:24:51;;;;;;;7.38;3.35;;;;;8.40;96945.00;;;;8345897;28;20189;-65
2023/09/24 00:28:54;;;;;;;4.00;3.40;;;;;8.40;96939.00;;;;8349090;28;20433;-65
2023/09/24 00:32:58;;;;;;;8.10;3.30;;;;;8.40;96937.00;;;;8338212;28;20924;-65
2023/09/24 00:37:03;;;;;;;9.67;3.97;;;;;8.30;96940.00;;;;8351196;28;20208;-65
2023/09/24 00:41:06;;;;;;;5.33;3.40;;;;;8.30;96944.00;;;;8346470;28;20608;-64
2023/09/24 00:45:11;;;;;;;6.53;3.60;;;;;8.20;96948.00;;;;8349953;28;20280;-65
2023/09/24 00:49:17;;;;;;;6.07;3.17;;;;;8.20;96945.00;;;;8347567;28;20201;-64
2023/09/24 00:53:21;;;;;;;5.30;3.63;;;;;8.10;96939.00;;;;8350063;28;20211;-65
2023/09/24 00:57:28;;;;;;;6.30;3.50;;;;;8.10;96945.00;;;;8349425;28;20263;-65
2023/09/24 01:01:35;;;;;;;6.47;3.90;;;;;8.10;96941.00;;;;8346858;28;20308;-65
2023/09/24 01:05:40;;;;;;;5.63;3.50;;;;;8.20;96945.00;;;;8347230;28;20248;-65
2023/09/24 01:09:47;;;;;;;5.43;3.28;;;;;8.10;96944.00;;;;8342246;28;20331;-65
2023/09/24 01:13:50;;;;;;;3.40;3.00;;;;;7.90;96957.00;;;;8346118;28;20209;-65
2023/09/24 01:17:53;;;;;;;6.13;3.47;;;;;7.90;96951.00;;;;8349603;28;20288;-65
2023/09/24 01:22:02;;;;;;;7.57;3.60;;;;;7.80;96962.00;;;;8345111;28;20320;-65
2023/09/24 01:26:12;;;;;;;4.50;3.10;;;;;7.80;96966.00;;;;8348534;28;20280;-65
2023/09/24 01:30:15;;;;;;;6.73;3.27;;;;;7.80;96961.00;;;;8348026;28;20843;-65
2023/09/24 01:34:19;;;;;;;5.40;3.70;;;;;7.80;96975.00;;;;8351095;28;20201;-65
2023/09/24 01:38:28;;;;;;;5.50;3.20;;;;;7.70;96972.00;;;;8346331;28;20323;-65
2023/09/24 01:42:34;;;;;;;4.30;3.70;;;;;7.70;96984.00;;;;8350583;28;20654;-65
2023/09/24 01:46:38;;;;;;;7.93;3.53;;;;;7.60;96983.00;;;;8346054;28;20205;-64
2023/09/24 01:50:43;;;;;;;8.50;3.93;;;;;7.50;96988.00;;;;8346251;28;20243;-64
2023/09/24 01:54:48;;;;;;;6.03;3.47;;;;;7.50;96990.00;;;;8347963;28;20201;-64
2023/09/24 01:58:52;;;;;;;3.60;3.30;;;;;7.50;96997.00;;;;8346697;28;20201;-64
2023/09/24 02:02:59;;;;;;;6.60;3.80;;;;;7.40;96999.00;;;;8347583;28;20319;-65
2023/09/24 02:07:03;;;;;;;6.37;3.57;;;;;7.40;97000.00;;;;8347290;28;20197;-65
2023/09/24 02:11:08;;;;;;;4.47;3.10;;;;;7.50;97004.00;;;;8344775;28;20211;-65
2023/09/24 02:15:14;;;;;;;5.77;3.50;;;;;7.50;97004.00;;;;8348789;28;20268;-64
2023/09/24 02:19:17;;;;;;;9.67;3.83;;;;;7.40;97022.00;;;;8345925;28;20207;-64
2023/09/24 02:23:22;;;;;;;3.47;3.17;;;;;7.30;97026.00;;;;8347222;28;20229;-65
2023/09/24 02:27:27;;;;;;;4.13;3.30;;;;;7.30;97026.00;;;;8346723;28;20209;-64
2023/09/24 02:31:39;;;;;;;5.73;3.40;;;;;7.20;97038.00;;;;8346399;28;20922;-64
2023/09/24 02:35:43;;;;;;;10.97;3.80;;;;;7.30;97037.00;;;;8349058;28;20887;-64
2023/09/24 02:39:46;;;;;;;9.03;3.83;;;;;7.30;97044.00;;;;8344781;28;20196;-64
2023/09/24 02:43:54;;;;;;;6.00;3.80;;;;;7.30;97059.00;;;;8346830;28;20232;-64
2023/09/24 02:47:58;;;;;;;4.03;3.60;;;;;7.30;97065.00;;;;8344789;28;20292;-64
2023/09/24 02:52:02;;;;;;;6.83;3.60;;;;;7.30;97065.00;;;;8345360;28;20204;-64
2023/09/24 02:56:05;;;;;;;12.70;4.60;;;;;7.30;97075.00;;;;8346226;28;20193;-64
2023/09/24 03:00:17;;;;;;;5.63;3.80;;;;;7.30;97080.00;;;;8337975;28;20281;-64
2023/09/24 03:04:22;;;;;;;6.67;3.93;;;;;7.20;97080.00;;;;8372191;22;20260;-64
2023/09/24 03:08:28;;;;;;;7.30;4.73;;;;;7.10;97080.00;;;;8345501;28;20197;-64
2023/09/24 03:12:32;;;;;;;5.80;3.90;;;;;7.10;97085.00;;;;8344169;28;20201;-64
2023/09/24 03:16:39;;;;;;;8.23;3.57;;;;;7.10;97088.00;;;;8348937;28;20209;-64
2023/09/24 03:20:44;;;;;;;7.20;3.77;;;;;7.10;97096.00;;;;8342360;28;20258;-64
2023/09/24 03:24:49;;;;;;;4.43;3.87;;;;;7.20;97094.00;;;;8347222;28;20229;-64
2023/09/24 03:28:53;;;;;;;4.47;3.80;;;;;7.20;97096.00;;;;8345081;28;20303;-65
2023/09/24 03:32:58;;;;;;;5.20;4.60;;;;;7.20;97099.00;;;;8345314;28;20197;-64
2023/09/24 03:37:05;;;;;;;5.63;3.83;;;;;7.10;97100.00;;;;8352113;28;20201;-64
2023/09/24 03:41:12;;;;;;;5.67;3.57;;;;;7.00;97099.00;;;;8353334;28;20192;-64
2023/09/24 03:45:28;;;;;;;8.63;3.67;;;;;6.90;97100.00;;;;8349756;28;20828;-65
2023/09/24 03:49:32;;;;;;;6.10;3.87;;;;;6.90;97100.00;;;;8346205;28;20279;-63
2023/09/24 03:53:35;;;;;;;9.33;4.30;;;;;6.90;97105.00;;;;8351258;28;20204;-64
2023/09/24 03:57:41;;;;;;;6.47;4.27;;;;;6.90;97105.00;;;;8360660;28;20638;-64
2023/09/24 04:01:54;;;;;;;7.43;4.17;;;;;6.80;97118.00;;;;8342054;28;20266;-64
2023/09/24 04:06:01;;;;;;;7.63;4.57;;;;;6.70;97118.00;;;;8350481;28;20912;-63
2023/09/24 04:10:05;;;;;;;7.43;3.93;;;;;6.80;97132.00;;;;8353517;28;20283;-64
2023/09/24 04:14:12;;;;;;;10.47;4.40;;;;;6.80;97130.00;;;;8344097;28;20201;-64
2023/09/24 04:18:20;;;;;;;8.70;5.10;;;;;6.70;97137.00;;;;8347109;28;20217;-64
2023/09/24 04:22:28;;;;;;;7.20;4.50;;;;;6.70;97134.00;;;;8347660;28;20363;-64
2023/09/24 04:26:34;;;;;;;4.47;3.90;;;;;6.70;97139.00;;;;8352986;28;20398;-64
2023/09/24 04:30:39;;;;;;;10.00;4.73;;;;;6.80;97131.00;;;;8348836;28;20258;-64
2023/09/24 04:34:43;;;;;;;8.97;4.63;;;;;6.70;97129.00;;;;8347417;28;21170;-64
2023/09/24 04:38:48;;;;;;;5.77;3.70;;;;;6.70;97140.00;;;;8347090;28;20217;-64
2023/09/24 04:42:52;;;;;;;8.07;4.30;;;;;6.70;97140.00;;;;8349271;28;20337;-64
2023/09/24 04:46:55;;;;;;;7.93;4.50;;;;;6.80;97138.00;;;;8345059;28;20283;-64
2023/09/24 04:51:00;;;;;;;10.00;5.00;;;;;6.80;97149.00;;;;8349357;28;20291;-64
2023/09/24 04:55:05;;;;;;;8.47;4.50;;;;;6.70;97144.00;;;;8349407;28;20732;-64
2023/09/24 04:59:19;;;;;;;6.60;3.77;;;;;6.60;97149.00;;;;8350801;28;20606;-64
2023/09/24 05:03:25;;;;;;;9.33;4.83;;;;;6.60;97153.00;;;;8347293;28;20252;-65
2023/09/24 05:07:33;;;;;;;10.27;4.57;;;;;6.60;97160.00;;;;8356104;28;20201;-64
2023/09/24 05:11:38;;;;;;;6.23;3.90;;;;;6.60;97162.00;;;;8347464;28;20204;-64
2023/09/24 05:15:41;;;;;;;19.77;7.77;;;;;6.60;97160.00;;;;8343693;28;20193;-65
2023/09/24 05:19:44;;;;;;;9.53;4.90;;;;;6.60;97162.00;;;;8347201;28;20210;-65
2023/09/24 05:23:47;;;;;;;13.20;4.87;;;;;6.80;97159.00;;;;8348710;28;20224;-64
2023/09/24 05:27:57;;;;;;;9.40;5.27;;;;;6.90;97166.00;;;;8345613;28;20221;-65
2023/09/24 05:32:02;;;;;;;9.77;4.67;;;;;6.90;97172.00;;;;8344717;28;20197;-64
2023/09/24 05:36:08;;;;;;;8.30;4.33;;;;;7.00;97172.00;;;;8347932;28;20203;-64
2023/09/24 05:40:13;;;;;;;25.80;7.53;;;;;7.00;97169.00;;;;8345399;28;21609;-64
2023/09/24 05:44:20;;;;;;;10.23;4.97;;;;;7.10;97173.00;;;;8344094;28;20263;-64
2023/09/24 05:48:23;;;;;;;10.50;5.00;;;;;7.10;97187.00;;;;8349299;28;20898;-64
2023/09/24 05:52:29;;;;;;;7.20;4.53;;;;;7.10;97192.00;;;;8347970;28;20212;-64
2023/09/24 05:56:33;;;;;;;5.17;4.13;;;;;7.20;97198.00;;;;8338287;28;20296;-64
2023/09/24 06:00:38;;;;;;;6.37;4.63;;;;;7.40;97217.00;;;;8344831;28;20208;-64
2023/09/24 06:04:42;;;;;;;7.03;4.33;;;;;7.50;97210.00;;;;8341667;28;20319;-64
2023/09/24 06:08:49;;;;;;;7.47;4.07;;;;;7.60;97211.00;;;;8344661;28;20201;-65
2023/09/24 06:12:57;;;;;;;8.20;4.10;;;;;7.70;97225.00;;;;8342882;28;20222;-65
2023/09/24 06:17:03;;;;;;;5.83;3.70;;;;;7.90;97228.00;;;;8342339;28;20197;-65
2023/09/24 06:21:09;;;;;;;8.20;4.03;;;;;8.10;97232.00;;;;8342492;28;20212;-65
2023/09/24 06:25:13;;;;;;;8.40;4.20;;;;;8.20;97233.00;;;;8344913;28;20232;-65
2023/09/24 06:29:16;;;;;;;5.73;3.93;;;;;8.50;97238.00;;;;8346859;28;20218;-64
2023/09/24 06:33:20;;;;;;;8.47;4.37;;;;;8.60;97241.00;;;;8342745;28;20212;-65
2023/09/24 06:37:27;;;;;;;7.70;4.27;;;;;8.80;97234.00;;;;8339337;28;20250;-65
2023/09/24 06:41:30;;;;;;;8.73;4.67;;;;;9.00;97240.00;;;;8332637;28;20292;-65
2023/09/24 06:45:33;;;;;;;6.82;4.25;;;;;9.30;97255.00;;;;8344397;28;20249;-65
2023/09/24 06:49:38;;;;;;;12.60;5.70;;;;;9.50;97257.00;;;;8345391;28;20291;-65
2023/09/24 06:53:41;;;;;;;9.90;4.93;;;;;9.70;97259.00;;;;8342359;28;20697;-65
2023/09/24 06:57:46;;;;;;;8.70;5.67;;;;;9.90;97264.00;;;;8343105;28;20880;-64
2023/09/24 07:01:50;;;;;;;9.32;5.07;;;;;10.10;97264.00;;;;8341046;28;20304;-65
2023/09/24 07:05:55;;;;;;;11.68;5.63;;;;;10.30;97267.00;;;;8345266;28;20237;-64
2023/09/24 07:09:59;;;;;;;7.55;4.82;;;;;10.50;97264.00;;;;8345508;28;20699;-64
2023/09/24 07:14:11;;;;;;;8.57;4.72;;;;;10.70;97262.00;;;;8343169;28;20467;-65
2023/09/24 07:18:23;;;;;;;9.10;5.18;;;;;11.00;97265.00;;;;8342671;28;20197;-64
2023/09/24 07:22:31;;;;;;;6.13;4.80;;;;;11.20;97269.00;;;;8339238;28;20199;-65
2023/09/24 07:26:34;;;;;;;8.57;4.80;;;;;11.40;97281.00;;;;8340621;28;20332;-64
2023/09/24 07:30:38;;;;;;;6.15;4.28;;;;;11.60;97284.00;;;;8342352;28;20206;-65
2023/09/24 07:34:41;;;;;;;10.48;4.28;;;;;11.90;97286.00;;;;8345125;28;20584;-65
2023/09/24 07:38:49;;;;;;;10.90;3.72;;;;;12.20;97284.00;;;;8339947;28;20196;-65
2023/09/24 07:42:53;;;;;;;6.97;4.38;;;;;12.40;97290.00;;;;8344367;28;20234;-65
2023/09/24 07:46:57;;;;;;;5.00;3.80;;;;;12.70;97288.00;;;;8339631;28;20222;-65
2023/09/24 07:51:00;;;;;;;5.32;3.97;;;;;12.90;97299.00;;;;8339475;28;20198;-66
2023/09/24 07:55:06;;;;;;;5.03;3.10;;;;;13.10;97301.00;;;;8334323;28;20204;-66
2023/09/24 07:59:15;;;;;;;6.63;3.00;;;;;13.30;97302.00;;;;8339212;28;20905;-66
2023/09/24 08:03:21;;;;;;;9.05;3.00;;;;;13.40;97304.00;;;;8337153;28;20968;-66
2023/09/24 08:07:29;;;;;;;5.53;3.35;;;;;13.60;97305.00;;;;8340046;28;22065;-65
2023/09/24 08:11:33;;;;;;;6.78;2.85;;;;;13.80;97301.00;;;;8343150;28;20674;-66
2023/09/24 08:15:37;;;;;;;8.15;2.67;;;;;13.90;97305.00;;;;8344139;28;20201;-65
2023/09/24 08:19:44;;;;;;;6.53;2.70;;;;;14.10;97300.00;;;;8341250;28;20220;-65
2023/09/24 08:23:55;;;;;;;4.55;2.45;;;;;14.20;97308.00;;;;8345906;28;20221;-65
2023/09/24 08:28:06;;;;;;;3.90;2.28;;;;;14.40;97308.00;;;;8350827;28;20259;-65
2023/09/24 08:32:09;;;;;;;6.75;2.42;;;;;14.50;97308.00;;;;8350024;28;20205;-65
2023/09/24 08:36:13;;;;;;;4.35;2.17;;;;;14.80;97308.00;;;;8343598;28;20197;-65
2023/09/24 08:40:18;;;;;;;7.07;2.33;;;;;15.00;97314.00;;;;8345804;28;20200;-66
2023/09/24 08:44:29;;;;;;;3.67;2.03;;;;;15.30;97316.00;;;;8349349;28;20235;-66
2023/09/24 08:48:33;;;;;;;2.40;1.65;;;;;15.70;97314.00;;;;8347814;28;20292;-66
2023/09/24 08:52:39;;;;;;;3.65;2.13;;;;;16.10;97323.00;;;;8346683;28;20204;-66
2023/09/24 08:56:44;;;;;;;2.38;1.40;;;;;16.40;97317.00;;;;8347593;28;20312;-66
2023/09/24 09:00:51;;;;;;;4.80;2.00;;;;;16.60;97309.00;;;;8347932;28;20197;-66
2023/09/24 09:04:55;;;;;;;5.78;1.90;;;;;17.10;97309.00;;;;8345065;28;20224;-66
2023/09/24 09:08:58;;;;;;;4.60;1.88;;;;;17.30;97324.00;;;;8350021;28;20284;-66
2023/09/24 09:13:07;;;;;;;3.85;1.70;;;;;17.50;97318.00;;;;8344453;28;20204;-66
2023/09/24 09:17:12;;;;;;;4.20;1.98;;;;;17.80;97320.00;;;;8348946;28;21005;-66
2023/09/24 09:21:25;;;;;;;4.93;1.90;;;;;18.40;97318.00;;;;8349068;28;20201;-65
2023/09/24 09:25:32;;;;;;;2.13;1.90;;;;;19.10;97325.00;;;;8346351;28;20323;-66
2023/09/24 09:29:38;;;;;;;1.58;1.42;;;;;19.80;97317.00;;;;8346699;28;20243;-66
2023/09/24 09:33:44;;;;;;;2.42;1.58;;;;;20.30;97321.00;;;;8343336;28;20192;-66
2023/09/24 09:37:47;;;;;;;4.28;1.50;;;;;20.20;97321.00;;;;8347623;28;20308;-66
2023/09/24 09:41:53;;;;;;;1.67;1.45;;;;;20.40;97320.00;;;;8346955;28;20211;-66
2023/09/24 09:45:57;;;;;;;2.33;1.42;;;;;20.70;97318.00;;;;8348759;28;20232;-66
2023/09/24 09:50:03;;;;;;;3.40;1.60;;;;;20.80;97314.00;;;;8346886;28;20215;-66
2023/09/24 09:54:07;;;;;;;3.25;1.58;;;;;19.70;97311.00;;;;8344908;28;20211;-66
2023/09/24 09:58:14;;;;;;;2.70;1.55;;;;;19.70;97307.00;;;;8342828;28;20200;-66
2023/09/24 10:02:29;;;;;;;5.13;1.85;;;;;20.20;97307.00;;;;8340866;28;20309;-65
2023/09/24 10:06:37;;;;;;;2.55;1.50;;;;;20.70;97306.00;;;;8342965;28;20225;-65
2023/09/24 10:10:43;;;;;;;2.33;1.30;;;;;21.00;97308.00;;;;8344514;28;20197;-65
2023/09/24 10:14:48;;;;;;;5.07;1.55;;;;;21.20;97318.00;;;;8339773;28;20931;-66
2023/09/24 10:19:00;;;;;;;3.30;1.52;;;;;21.10;97309.00;;;;8345858;28;20547;-65
2023/09/24 10:23:35;;;;;;;2.90;1.50;;;;;21.10;97312.00;;;;8342686;28;21244;-65
2023/09/24 10:28:04;;;;;;;3.40;1.67;;;;;21.10;97307.00;;;;8343414;28;20217;-65
2023/09/24 10:32:17;;;;;;;1.60;1.50;;;;;20.90;97314.00;;;;8343174;28;20205;-65
2023/09/24 10:36:22;;;;;;;1.80;1.50;;;;;21.20;97312.00;;;;8343384;28;20464;-66
2023/09/24 10:40:27;;;;;;;2.50;1.63;;;;;21.40;97310.00;;;;8339873;28;20634;-66
2023/09/24 10:44:33;;;;;;;2.78;1.67;;;;;21.50;97308.00;;;;8341188;28;20201;-65
2023/09/24 10:48:43;;;;;;;2.40;1.73;;;;;21.50;97307.00;;;;8345270;28;20208;-66
2023/09/24 10:52:57;;;;;;;1.65;1.52;;;;;21.10;97315.00;;;;8336521;28;20291;-65
2023/09/24 10:57:01;;;;;;;2.90;1.75;;;;;20.70;97311.00;;;;8344121;28;20193;-65
2023/09/24 11:01:12;;;;;;;1.38;1.30;;;;;20.40;97304.00;;;;8339080;28;20864;-65
2023/09/24 11:05:17;;;;;;;2.22;1.52;;;;;20.10;97309.00;;;;8344193;28;20896;-66
2023/09/24 11:09:21;;;;;;;3.63;1.30;;;;;19.80;97301.00;;;;8337883;28;20208;-67
2023/09/24 11:13:25;;;;;;;2.08;1.25;;;;;20.10;97302.00;;;;8343896;28;20196;-65
2023/09/24 11:17:31;;;;;;;1.60;1.50;;;;;20.00;97306.00;;;;8338098;28;20339;-66
2023/09/24 11:21:36;;;;;;;2.17;1.40;;;;;20.00;97288.00;;;;8338218;28;20200;-66
2023/09/24 11:25:40;;;;;;;2.10;1.52;;;;;20.70;97289.00;;;;8340520;28;20733;-66
2023/09/24 11:29:57;;;;;;;2.00;1.20;;;;;20.90;97299.00;;;;8338734;28;20192;-66
2023/09/24 11:34:02;;;;;;;1.38;1.13;;;;;20.70;97290.00;;;;8333865;28;20283;-66
2023/09/24 11:38:07;;;;;;;2.92;1.17;;;;;20.40;97304.00;;;;8336845;28;20193;-66
2023/09/24 11:42:18;;;;;;;2.17;1.40;;;;;19.80;97300.00;;;;8337742;28;20247;-67
2023/09/24 11:46:25;;;;;;;1.95;1.48;;;;;19.50;97290.00;;;;8339268;28;20224;-67
2023/09/24 11:50:30;;;;;;;4.97;1.58;;;;;19.70;97290.00;;;;8342789;28;20196;-67
2023/09/24 11:54:36;;;;;;;1.50;1.40;;;;;20.00;97281.00;;;;8336705;28;20637;-66
2023/09/24 11:58:39;;;;;;;1.85;1.45;;;;;20.10;97286.00;;;;8341289;28;20203;-66
2023/09/24 12:02:43;;;;;;;3.58;1.30;;;;;20.10;97279.00;;;;8347049;28;20263;-67
2023/09/24 12:06:47;;;;;;;3.67;1.10;;;;;20.20;97281.00;;;;8347028;28;20303;-66
2023/09/24 12:10:51;;;;;;;3.08;1.50;;;;;20.10;97278.00;;;;8346253;28;20701;-67
2023/09/24 12:14:55;;;;;;;3.17;1.40;;;;;20.10;97275.00;;;;8342056;28;20226;-67
2023/09/24 12:19:01;;;;;;;1.33;1.20;;;;;20.20;97270.00;;;;8341369;28;20216;-66
2023/09/24 12:23:10;;;;;;;1.20;1.20;;;;;20.80;97268.00;;;;8344775;28;20197;-68
2023/09/24 12:27:13;;;;;;;1.30;1.20;;;;;21.50;97273.00;;;;8347495;28;20236;-68
2023/09/24 12:31:16;;;;;;;1.10;1.10;;;;;21.80;97278.00;;;;8345837;28;20616;-66
2023/09/24 12:35:19;;;;;;;1.27;1.17;;;;;21.40;97278.00;;;;8343313;28;20211;-67
2023/09/24 12:39:24;;;;;;;2.35;1.55;;;;;20.60;97283.00;;;;8343945;28;20232;-66
2023/09/24 12:43:30;;;;;;;1.10;1.10;;;;;20.00;97280.00;;;;8342383;28;20214;-67
2023/09/24 12:47:41;;;;;;;1.50;1.40;;;;;19.60;97276.00;;;;8347736;28;20635;-67
2023/09/24 12:51:47;;;;;;;1.27;1.15;;;;;19.20;97275.00;;;;8348655;28;20201;-67
2023/09/24 12:56:03;;;;;;;1.73;1.15;;;;;19.20;97268.00;;;;8347164;28;20209;-67
2023/09/24 13:00:10;;;;;;;2.17;1.20;;;;;19.70;97269.00;;;;8337924;28;20196;-67
2023/09/24 13:04:16;;;;;;;1.17;1.10;;;;;20.10;97268.00;;;;8341726;28;20586;-67
2023/09/24 13:08:19;;;;;;;2.72;1.20;;;;;20.20;97269.00;;;;8344170;28;22004;-67
2023/09/24 13:12:24;;;;;;;1.00;1.00;;;;;20.10;97265.00;;;;8343713;28;20312;-67
2023/09/24 13:16:27;;;;;;;1.08;1.08;;;;;20.00;97262.00;;;;8343368;28;20266;-66
2023/09/24 13:20:30;;;;;;;1.73;1.35;;;;;19.70;97263.00;;;;8346655;28;20601;-67
2023/09/24 13:24:38;;;;;;;1.55;1.20;;;;;19.70;97249.00;;;;8345355;28;20561;-66
2023/09/24 13:28:42;;;;;;;1.05;1.05;;;;;19.80;97260.00;;;;8346660;28;20670;-67
2023/09/24 13:32:47;;;;;;;1.20;1.10;;;;;20.00;97248.00;;;;8348534;28;20224;-67
2023/09/24 13:36:51;;;;;;;1.15;1.08;;;;;20.20;97261.00;;;;8346436;28;20266;-67
2023/09/24 13:41:01;;;;;;;4.78;1.50;;;;;20.40;97259.00;;;;8345472;28;20255;-67
2023/09/24 13:45:11;;;;;;;1.95;1.30;;;;;20.60;97256.00;;;;8343482;28;20205;-66
2023/09/24 13:49:14;;;;;;;1.30;1.30;;;;;20.90;97248.00;;;;8342440;28;20237;-67
2023/09/24 13:53:17;;;;;;;1.25;1.23;;;;;21.00;97254.00;;;;8340731;28;20621;-66
2023/09/24 13:57:23;;;;;;;1.42;1.33;;;;;21.50;97240.00;;;;8343511;28;20659;-67
2023/09/24 14:01:33;;;;;;;1.40;1.30;;;;;21.90;97243.00;;;;8342764;28;20200;-66
2023/09/24 14:05:38;;;;;;;1.40;1.30;;;;;21.80;97249.00;;;;8335492;28;20219;-67
2023/09/24 14:14:06;;;;;;;1.50;1.20;;;;;20.70;97239.00;;;;8339583;28;21173;-66
2023/09/24 14:18:10;;;;;;;1.50;1.13;;;;;20.30;97237.00;;;;8339985;28;20291;-67
2023/09/24 14:22:17;;;;;;;1.48;1.30;;;;;20.30;97237.00;;;;8340270;28;20201;-66
2023/09/24 14:26:23;;;;;;;5.65;1.48;;;;;20.60;97243.00;;;;8342391;28;20229;-67
2023/09/24 14:30:26;;;;;;;1.95;1.27;;;;;20.90;97235.00;;;;8342545;28;20284;-67
2023/09/24 14:34:34;;;;;;;1.58;1.42;;;;;21.20;97238.00;;;;8341751;28;20224;-66
2023/09/24 14:38:37;;;;;;;1.60;1.50;;;;;21.20;97236.00;;;;8342580;28;20275;-67
2023/09/24 14:42:43;;;;;;;1.67;1.52;;;;;21.00;97241.00;;;;8344736;28;20251;-66
2023/09/24 14:46:49;;;;;;;3.30;1.67;;;;;21.00;97229.00;;;;8341980;28;20316;-66
2023/09/24 14:50:57;;;;;;;2.33;1.65;;;;;21.00;97229.00;;;;8342868;28;20255;-67
2023/09/24 14:55:01;;;;;;;2.30;1.63;;;;;21.10;97221.00;;;;8342802;28;20197;-66
2023/09/24 14:59:04;;;;;;;1.83;1.73;;;;;21.00;97218.00;;;;8347932;28;20201;-66
2023/09/24 15:03:09;;;;;;;1.77;1.65;;;;;21.00;97218.00;;;;8341882;28;20232;-66
2023/09/24 15:07:13;;;;;;;1.80;1.70;;;;;21.10;97217.00;;;;8340274;28;20311;-66
2023/09/24 15:11:20;;;;;;;3.03;1.80;;;;;21.40;97212.00;;;;8339516;28;20232;-67
2023/09/24 15:15:24;;;;;;;2.20;1.40;;;;;21.80;97214.00;;;;8340740;28;20647;-67
2023/09/24 15:19:27;;;;;;;2.20;1.65;;;;;22.10;97208.00;;;;8344142;28;20353;-67
2023/09/24 15:23:35;;;;;;;3.22;1.52;;;;;22.50;97209.00;;;;8344143;28;20296;-67
2023/09/24 15:27:41;;;;;;;1.73;1.50;;;;;22.80;97208.00;;;;8344112;28;20612;-66
2023/09/24 15:31:47;;;;;;;3.22;1.67;;;;;23.10;97216.00;;;;8343476;28;20938;-67
2023/09/24 15:35:50;;;;;;;1.40;1.38;;;;;23.20;97212.00;;;;8338125;28;20200;-66
2023/09/24 15:39:55;;;;;;;1.80;1.70;;;;;22.80;97204.00;;;;8344971;28;20189;-67
2023/09/24 15:43:58;;;;;;;1.50;1.40;;;;;22.50;97211.00;;;;8342592;28;20207;-66
2023/09/24 15:48:02;;;;;;;1.40;1.30;;;;;22.20;97210.00;;;;8345232;28;20224;-66
2023/09/24 15:52:05;;;;;;;2.40;1.70;;;;;21.80;97211.00;;;;8341729;28;20201;-67
2023/09/24 15:56:10;;;;;;;1.38;1.27;;;;;21.40;97216.00;;;;8342922;28;20197;-67
2023/09/24 16:00:14;;;;;;;1.45;1.35;;;;;20.90;97214.00;;;;8343071;28;20912;-67
2023/09/24 16:04:20;;;;;;;3.33;1.40;;;;;20.30;97211.00;;;;8340250;28;20220;-66
2023/09/24 16:08:26;;;;;;;1.60;1.50;;;;;19.90;97215.00;;;;8344344;28;20687;-71
2023/09/24 16:12:36;;;;;;;1.45;1.35;;;;;19.40;97220.00;;;;8333467;28;20285;-66
2023/09/24 16:16:40;;;;;;;1.45;1.33;;;;;19.10;97217.00;;;;8344650;28;20433;-66
2023/09/24 16:20:44;;;;;;;2.25;1.52;;;;;18.80;97220.00;;;;8340144;28;20197;-66
2023/09/24 16:24:51;;;;;;;2.75;1.40;;;;;18.60;97222.00;;;;8338115;28;20232;-65
2023/09/24 16:29:04;;;;;;;2.17;1.50;;;;;18.40;97230.00;;;;8339542;28;20224;-66
2023/09/24 16:33:08;;;;;;;4.40;1.42;;;;;18.20;97232.00;;;;8338560;28;20193;-65
2023/09/24 16:37:11;;;;;;;1.60;1.50;;;;;18.00;97229.00;;;;8343067;28;20721;-65
2023/09/24 16:41:16;;;;;;;2.00;1.90;;;;;17.80;97231.00;;;;8340759;28;20240;-65
2023/09/24 16:45:20;;;;;;;2.75;2.22;;;;;17.50;97220.00;;;;8344410;28;20267;-64
2023/09/24 16:49:24;;;;;;;1.70;1.60;;;;;17.30;97232.00;;;;8350835;28;20263;-65
2023/09/24 16:53:28;;;;;;;1.88;1.77;;;;;17.00;97237.00;;;;8345710;28;20231;-65
2023/09/24 16:57:35;;;;;;;2.47;1.58;;;;;16.70;97235.00;;;;8345876;28;20197;-65
2023/09/24 17:01:40;;;;;;;3.08;2.00;;;;;16.40;97235.00;;;;8345001;28;20806;-63
2023/09/24 17:05:43;;;;;;;2.25;1.80;;;;;16.20;97240.00;;;;8336324;28;20207;-63
2023/09/24 17:09:48;;;;;;;4.20;2.00;;;;;16.00;97237.00;;;;8344803;28;20341;-62
2023/09/24 17:13:56;;;;;;;2.03;1.92;;;;;15.80;97235.00;;;;8342805;28;20213;-62
2023/09/24 17:18:04;;;;;;;2.22;1.80;;;;;15.50;97247.00;;;;8346357;28;20200;-62
2023/09/24 17:22:11;;;;;;;2.22;1.83;;;;;15.30;97247.00;;;;8342171;28;20334;-62
2023/09/24 17:26:16;;;;;;;2.47;1.63;;;;;15.10;97247.00;;;;8341285;28;20208;-62
2023/09/24 17:30:19;;;;;;;2.25;1.70;;;;;14.80;97255.00;;;;8349691;28;20228;-63
2023/09/24 17:34:26;;;;;;;1.80;1.70;;;;;14.50;97255.00;;;;8344635;28;20289;-63
2023/09/24 17:38:30;;;;;;;2.80;1.92;;;;;14.30;97258.00;;;;8347305;28;20193;-64
2023/09/24 17:42:34;;;;;;;4.05;2.55;;;;;14.00;97260.00;;;;8346521;28;20216;-62
2023/09/24 17:46:38;;;;;;;3.67;2.53;;;;;13.80;97257.00;;;;8343286;28;20197;-63
2023/09/24 17:50:45;;;;;;;2.22;2.03;;;;;13.70;97247.00;;;;8345716;28;20782;-63
2023/09/24 17:54:50;;;;;;;2.75;2.08;;;;;13.50;97261.00;;;;8341170;28;20233;-62
2023/09/24 17:58:53;;;;;;;2.53;1.98;;;;;13.40;97260.00;;;;8346692;28;20639;-63
2023/09/24 18:02:56;;;;;;;2.40;2.17;;;;;13.20;97261.00;;;;8345824;28;21012;-62
2023/09/24 18:07:06;;;;;;;2.55;2.35;;;;;13.10;97263.00;;;;8345470;28;20841;-62
2023/09/24 18:11:09;;;;;;;2.75;1.80;;;;;13.00;97262.00;;;;8346410;28;20207;-62
2023/09/24 18:15:14;;;;;;;3.28;1.95;;;;;12.90;97265.00;;;;8344890;28;20744;-63
2023/09/24 18:19:18;;;;;;;2.00;1.90;;;;;12.70;97255.00;;;;8337772;28;20205;-63
2023/09/24 18:23:22;;;;;;;2.47;1.95;;;;;12.60;97263.00;;;;8343532;28;20200;-63
2023/09/24 18:27:28;;;;;;;3.53;1.90;;;;;12.50;97268.00;;;;8345745;28;20231;-63
2023/09/24 18:31:32;;;;;;;2.90;2.13;;;;;12.30;97269.00;;;;8347174;28;20204;-62
2023/09/24 18:35:37;;;;;;;2.30;1.90;;;;;12.10;97270.00;;;;8344795;28;20236;-62
2023/09/24 18:39:44;;;;;;;3.47;2.00;;;;;12.00;97270.00;;;;8345594;28;20941;-62
2023/09/24 18:43:47;;;;;;;1.67;1.58;;;;;11.90;97281.00;;;;8341264;28;20254;-62
2023/09/24 18:47:54;;;;;;;3.22;1.98;;;;;11.80;97270.00;;;;8346329;28;20227;-63
2023/09/24 18:52:02;;;;;;;2.55;2.08;;;;;11.70;97274.00;;;;8346848;28;21049;-62
2023/09/24 18:56:06;;;;;;;3.20;2.25;;;;;11.60;97274.00;;;;8344335;28;20222;-63
2023/09/24 19:00:13;;;;;;;4.13;2.20;;;;;11.50;97274.00;;;;8346384;28;20287;-63
2023/09/24 19:04:17;;;;;;;2.17;1.92;;;;;11.40;97271.00;;;;8343679;28;20743;-62
2023/09/24 19:08:20;;;;;;;5.55;2.65;;;;;11.20;97262.00;;;;8341655;28;20325;-62
2023/09/24 19:12:28;;;;;;;3.38;2.58;;;;;11.00;97260.00;;;;8345938;28;20205;-62
2023/09/24 19:16:34;;;;;;;3.63;2.97;;;;;10.90;97268.00;;;;8346057;28;20229;-62
2023/09/24 19:20:39;;;;;;;2.70;2.30;;;;;10.80;97266.00;;;;8342388;28;20250;-62
2023/09/24 19:24:43;;;;;;;7.45;3.95;;;;;10.70;97269.00;;;;8344851;28;20197;-62
2023/09/24 19:28:50;;;;;;;5.45;2.83;;;;;10.60;97259.00;;;;8346547;28;20667;-62
2023/09/24 19:32:55;;;;;;;3.08;2.58;;;;;10.50;97266.00;;;;8341383;28;20234;-62
2023/09/24 19:36:58;;;;;;;4.30;2.60;;;;;10.40;97263.00;;;;8343791;28;20209;-62
2023/09/24 19:41:07;;;;;;;3.40;2.53;;;;;10.30;97259.00;;;;8345787;28;20210;-62
2023/09/24 19:45:12;;;;;;;3.28;2.55;;;;;10.30;97263.00;;;;8341573;28;20211;-62
2023/09/24 19:49:18;;;;;;;2.67;2.47;;;;;10.30;97260.00;;;;8343588;28;20275;-62
2023/09/24 19:53:21;;;;;;;4.90;2.72;;;;;10.40;97266.00;;;;8340541;28;20222;-63
2023/09/24 19:57:24;;;;;;;2.83;2.60;;;;;10.40;97265.00;;;;8346479;28;20506;-62
2023/09/24 20:01:30;;;;;;;2.70;2.50;;;;;10.40;97271.00;;;;8345319;28;20202;-62
2023/09/24 20:05:33;;;;;;;2.95;2.42;;;;;10.30;97271.00;;;;8342750;28;20295;-63
2023/09/24 20:09:40;;;;;;;4.55;2.63;;;;;10.30;97271.00;;;;8344696;28;20226;-63
2023/09/24 20:13:46;;;;;;;4.07;2.53;;;;;10.30;97280.00;;;;8343163;28;20239;-63
2023/09/24 20:17:51;;;;;;;3.72;2.50;;;;;10.30;97272.00;;;;8344584;28;20202;-63
2023/09/24 20:21:54;;;;;;;4.43;2.38;;;;;10.30;97271.00;;;;8350054;28;20196;-63
2023/09/24 20:25:59;;;;;;;2.30;2.20;;;;;10.40;97269.00;;;;8352826;28;20893;-63
2023/09/24 20:30:03;;;;;;;3.15;2.60;;;;;10.30;97266.00;;;;8352004;28;20235;-63
2023/09/24 20:34:08;;;;;;;3.58;2.45;;;;;10.30;97261.00;;;;8351861;28;20201;-63
2023/09/24 20:38:27;;;;;;;4.82;3.13;;;;;10.10;97256.00;;;;8351509;28;20205;-63